createdAt,value
2024-01-26T00:00:14.000Z,8.399999618530273
2024-01-26T00:00:34.000Z,8.399999618530273
2024-01-26T00:00:54.000Z,8.399999618530273
2024-01-26T00:01:14.000Z,8.399999618530273
2024-01-26T00:01:34.000Z,8.399999618530273
2024-01-26T00:01:54.000Z,8.399999618530273
2024-01-26T00:02:14.000Z,8.399999618530273
2024-01-26T00:02:33.000Z,8.399999618530273
2024-01-26T00:02:53.000Z,8.399999618530273
2024-01-26T00:03:13.000Z,8.399999618530273
2024-01-26T00:03:33.000Z,8.399999618530273
2024-01-26T00:03:53.000Z,8.399999618530273
2024-01-26T00:04:15.000Z,8.399999618530273
2024-01-26T00:04:34.000Z,8.399999618530273
2024-01-26T00:04:54.000Z,8.399999618530273
2024-01-26T00:05:15.000Z,8.5
2024-01-26T00:05:34.000Z,8.399999618530273
2024-01-26T00:05:54.000Z,8.399999618530273
2024-01-26T00:06:14.000Z,8.399999618530273
2024-01-26T00:06:34.000Z,8.5
2024-01-26T00:06:54.000Z,8.5
2024-01-26T00:07:14.000Z,8.399999618530273
2024-01-26T00:07:34.000Z,8.399999618530273
2024-01-26T00:07:53.000Z,8.399999618530273
2024-01-26T00:08:14.000Z,8.5
2024-01-26T00:08:33.000Z,8.5
2024-01-26T00:08:53.000Z,8.5
2024-01-26T00:09:13.000Z,8.5
2024-01-26T00:09:33.000Z,8.5
2024-01-26T00:09:53.000Z,8.5
2024-01-26T00:10:14.000Z,8.399999618530273
2024-01-26T00:10:34.000Z,8.399999618530273
2024-01-26T00:10:54.000Z,8.399999618530273
2024-01-26T00:11:14.000Z,8.399999618530273
2024-01-26T00:11:34.000Z,8.5
2024-01-26T00:11:54.000Z,8.399999618530273
2024-01-26T00:12:14.000Z,8.399999618530273
2024-01-26T00:12:34.000Z,8.399999618530273
2024-01-26T00:12:54.000Z,8.399999618530273
2024-01-26T00:13:14.000Z,8.399999618530273
2024-01-26T00:13:34.000Z,8.399999618530273
2024-01-26T00:13:53.000Z,8.399999618530273
2024-01-26T00:14:13.000Z,8.5
2024-01-26T00:14:33.000Z,8.5
2024-01-26T00:14:53.000Z,8.5
2024-01-26T00:15:13.000Z,8.5
2024-01-26T00:15:33.000Z,8.5
2024-01-26T00:15:53.000Z,8.5
2024-01-26T00:16:14.000Z,8.5
2024-01-26T00:16:34.000Z,8.5
2024-01-26T00:16:54.000Z,8.5
2024-01-26T00:17:14.000Z,8.5
2024-01-26T00:17:34.000Z,8.5
2024-01-26T00:17:54.000Z,8.5
2024-01-26T00:18:14.000Z,8.5
2024-01-26T00:18:34.000Z,8.5
2024-01-26T00:18:54.000Z,8.600000381469727
2024-01-26T00:19:14.000Z,8.5
2024-01-26T00:19:33.000Z,8.5
2024-01-26T00:19:53.000Z,8.5
2024-01-26T00:20:13.000Z,8.5
2024-01-26T00:20:33.000Z,8.5
2024-01-26T00:20:53.000Z,8.5
2024-01-26T00:21:13.000Z,8.5
2024-01-26T00:21:33.000Z,8.5
2024-01-26T00:21:54.000Z,8.5
2024-01-26T00:22:14.000Z,8.5
2024-01-26T00:22:34.000Z,8.5
2024-01-26T00:22:54.000Z,8.5
2024-01-26T00:23:14.000Z,8.5
2024-01-26T00:23:34.000Z,8.5
2024-01-26T00:23:54.000Z,8.5
2024-01-26T00:24:14.000Z,8.5
2024-01-26T00:24:34.000Z,8.5
2024-01-26T00:24:54.000Z,8.5
2024-01-26T00:25:14.000Z,8.5
2024-01-26T00:25:33.000Z,8.5
2024-01-26T00:25:53.000Z,8.5
2024-01-26T00:26:13.000Z,8.5
2024-01-26T00:26:33.000Z,8.5
2024-01-26T00:26:53.000Z,8.5
2024-01-26T00:27:13.000Z,8.5
2024-01-26T00:27:33.000Z,8.5
2024-01-26T00:27:54.000Z,8.5
2024-01-26T00:28:14.000Z,8.5
2024-01-26T00:28:34.000Z,8.5
2024-01-26T00:28:54.000Z,8.5
2024-01-26T00:29:14.000Z,8.5
2024-01-26T00:29:34.000Z,8.5
2024-01-26T00:29:54.000Z,8.5
2024-01-26T00:30:14.000Z,8.5
2024-01-26T00:30:34.000Z,8.5
2024-01-26T00:30:54.000Z,8.5
2024-01-26T00:31:22.000Z,8.5
2024-01-26T00:31:33.000Z,8.5
2024-01-26T00:31:53.000Z,8.5
2024-01-26T00:32:13.000Z,8.5
2024-01-26T00:32:33.000Z,8.5
2024-01-26T00:32:53.000Z,8.5
2024-01-26T00:33:13.000Z,8.5
2024-01-26T00:33:33.000Z,8.5
2024-01-26T00:33:54.000Z,8.5
2024-01-26T00:34:14.000Z,8.5
2024-01-26T00:34:34.000Z,8.5
2024-01-26T00:34:54.000Z,8.5
2024-01-26T00:35:14.000Z,8.5
2024-01-26T00:35:34.000Z,8.5
2024-01-26T00:35:54.000Z,8.5
2024-01-26T00:36:14.000Z,8.5
2024-01-26T00:36:34.000Z,8.5
2024-01-26T00:36:54.000Z,8.5
2024-01-26T00:37:14.000Z,8.5
2024-01-26T00:37:33.000Z,8.5
2024-01-26T00:37:53.000Z,8.5
2024-01-26T00:38:13.000Z,8.5
2024-01-26T00:38:33.000Z,8.5
2024-01-26T00:38:53.000Z,8.5
2024-01-26T00:39:13.000Z,8.5
2024-01-26T00:39:34.000Z,8.5
2024-01-26T00:39:54.000Z,8.5
2024-01-26T00:40:14.000Z,8.5
2024-01-26T00:40:34.000Z,8.5
2024-01-26T00:40:54.000Z,8.5
2024-01-26T00:41:14.000Z,8.5
2024-01-26T00:41:34.000Z,8.5
2024-01-26T00:41:54.000Z,8.5
2024-01-26T00:42:14.000Z,8.5
2024-01-26T00:42:34.000Z,8.5
2024-01-26T00:42:54.000Z,8.5
2024-01-26T00:43:14.000Z,8.5
2024-01-26T00:43:33.000Z,8.5
2024-01-26T00:43:53.000Z,8.5
2024-01-26T00:44:13.000Z,8.5
2024-01-26T00:44:33.000Z,8.5
2024-01-26T00:44:53.000Z,8.5
2024-01-26T00:45:13.000Z,8.5
2024-01-26T00:45:34.000Z,8.5
2024-01-26T00:45:54.000Z,8.5
2024-01-26T00:46:14.000Z,8.5
2024-01-26T00:46:34.000Z,8.5
2024-01-26T00:46:54.000Z,8.5
2024-01-26T00:47:14.000Z,8.5
2024-01-26T00:47:34.000Z,8.5
2024-01-26T00:47:54.000Z,8.5
2024-01-26T00:48:14.000Z,8.5
2024-01-26T00:48:34.000Z,8.5
2024-01-26T00:48:54.000Z,8.5
2024-01-26T00:49:14.000Z,8.5
2024-01-26T00:49:33.000Z,8.5
2024-01-26T00:49:53.000Z,8.5
2024-01-26T00:50:14.000Z,8.5
2024-01-26T00:50:33.000Z,8.5
2024-01-26T00:50:53.000Z,8.5
2024-01-26T00:51:13.000Z,8.5
2024-01-26T00:51:34.000Z,8.5
2024-01-26T00:51:54.000Z,8.5
2024-01-26T00:52:14.000Z,8.5
2024-01-26T00:52:34.000Z,8.5
2024-01-26T00:52:54.000Z,8.5
2024-01-26T00:53:14.000Z,8.5
2024-01-26T00:53:34.000Z,8.5
2024-01-26T00:53:54.000Z,8.5
2024-01-26T00:54:14.000Z,8.600000381469727
2024-01-26T00:54:34.000Z,8.600000381469727
2024-01-26T00:54:54.000Z,8.5
2024-01-26T00:55:14.000Z,8.5
2024-01-26T00:55:33.000Z,8.600000381469727
2024-01-26T00:55:53.000Z,8.600000381469727
2024-01-26T00:56:14.000Z,8.5
2024-01-26T00:56:33.000Z,8.600000381469727
2024-01-26T00:56:53.000Z,8.600000381469727
2024-01-26T00:57:14.000Z,8.600000381469727
2024-01-26T00:57:34.000Z,8.600000381469727
2024-01-26T00:57:54.000Z,8.600000381469727
2024-01-26T00:58:14.000Z,8.600000381469727
2024-01-26T00:58:34.000Z,8.600000381469727
2024-01-26T00:58:54.000Z,8.600000381469727
2024-01-26T00:59:14.000Z,8.600000381469727
2024-01-26T00:59:34.000Z,8.600000381469727
2024-01-26T00:59:54.000Z,8.600000381469727
2024-01-26T01:00:14.000Z,8.600000381469727
2024-01-26T01:00:34.000Z,8.600000381469727
2024-01-26T01:00:53.000Z,8.600000381469727
2024-01-26T01:01:14.000Z,8.600000381469727
2024-01-26T01:01:33.000Z,8.600000381469727
2024-01-26T01:01:53.000Z,8.600000381469727
2024-01-26T01:02:13.000Z,8.600000381469727
2024-01-26T01:02:33.000Z,8.600000381469727
2024-01-26T01:02:53.000Z,8.600000381469727
2024-01-26T01:03:14.000Z,8.600000381469727
2024-01-26T01:03:34.000Z,8.600000381469727
2024-01-26T01:03:54.000Z,8.600000381469727
2024-01-26T01:04:14.000Z,8.600000381469727
2024-01-26T01:04:34.000Z,8.600000381469727
2024-01-26T01:04:54.000Z,8.600000381469727
2024-01-26T01:05:14.000Z,8.600000381469727
2024-01-26T01:05:34.000Z,8.600000381469727
2024-01-26T01:05:54.000Z,8.600000381469727
2024-01-26T01:06:14.000Z,8.600000381469727
2024-01-26T01:06:34.000Z,8.600000381469727
2024-01-26T01:06:53.000Z,8.600000381469727
2024-01-26T01:07:14.000Z,8.699999809265137
2024-01-26T01:07:33.000Z,8.699999809265137
2024-01-26T01:07:53.000Z,8.600000381469727
2024-01-26T01:08:13.000Z,8.699999809265137
2024-01-26T01:08:33.000Z,8.699999809265137
2024-01-26T01:08:53.000Z,8.600000381469727
2024-01-26T01:09:14.000Z,8.600000381469727
2024-01-26T01:09:34.000Z,8.699999809265137
2024-01-26T01:09:54.000Z,8.699999809265137
2024-01-26T01:10:14.000Z,8.600000381469727
2024-01-26T01:10:34.000Z,8.600000381469727
2024-01-26T01:10:54.000Z,8.600000381469727
2024-01-26T01:11:14.000Z,8.600000381469727
2024-01-26T01:11:34.000Z,8.600000381469727
2024-01-26T01:11:54.000Z,8.600000381469727
2024-01-26T01:12:14.000Z,8.600000381469727
2024-01-26T01:12:34.000Z,8.699999809265137
2024-01-26T01:12:53.000Z,8.699999809265137
2024-01-26T01:13:13.000Z,8.699999809265137
2024-01-26T01:13:33.000Z,8.699999809265137
2024-01-26T01:13:53.000Z,8.699999809265137
2024-01-26T01:14:13.000Z,8.699999809265137
2024-01-26T01:14:33.000Z,8.699999809265137
2024-01-26T01:14:53.000Z,8.699999809265137
2024-01-26T01:15:14.000Z,8.699999809265137
2024-01-26T01:15:34.000Z,8.699999809265137
2024-01-26T01:15:54.000Z,8.699999809265137
2024-01-26T01:16:14.000Z,8.699999809265137
2024-01-26T01:16:34.000Z,8.699999809265137
2024-01-26T01:16:54.000Z,8.699999809265137
2024-01-26T01:17:14.000Z,8.699999809265137
2024-01-26T01:17:34.000Z,8.699999809265137
2024-01-26T01:17:54.000Z,8.800000190734863
2024-01-26T01:18:14.000Z,8.800000190734863
2024-01-26T01:18:33.000Z,8.800000190734863
2024-01-26T01:18:53.000Z,8.800000190734863
2024-01-26T01:19:14.000Z,8.699999809265137
2024-01-26T01:19:33.000Z,8.800000190734863
2024-01-26T01:19:53.000Z,8.800000190734863
2024-01-26T01:20:13.000Z,8.800000190734863
2024-01-26T01:20:33.000Z,8.800000190734863
2024-01-26T01:20:54.000Z,8.800000190734863
2024-01-26T01:21:14.000Z,8.800000190734863
2024-01-26T01:21:34.000Z,8.800000190734863
2024-01-26T01:21:54.000Z,8.800000190734863
2024-01-26T01:22:14.000Z,8.800000190734863
2024-01-26T01:22:34.000Z,8.800000190734863
2024-01-26T01:22:54.000Z,8.800000190734863
2024-01-26T01:23:14.000Z,8.800000190734863
2024-01-26T01:23:34.000Z,8.800000190734863
2024-01-26T01:23:54.000Z,8.800000190734863
2024-01-26T01:24:14.000Z,8.800000190734863
2024-01-26T01:24:33.000Z,8.800000190734863
2024-01-26T01:24:53.000Z,8.800000190734863
2024-01-26T01:25:13.000Z,8.800000190734863
2024-01-26T01:25:33.000Z,8.800000190734863
2024-01-26T01:25:53.000Z,8.800000190734863
2024-01-26T01:26:13.000Z,8.800000190734863
2024-01-26T01:26:33.000Z,8.800000190734863
2024-01-26T01:26:54.000Z,8.800000190734863
2024-01-26T01:27:14.000Z,8.800000190734863
2024-01-26T01:27:34.000Z,8.800000190734863
2024-01-26T01:27:54.000Z,8.800000190734863
2024-01-26T01:28:14.000Z,8.800000190734863
2024-01-26T01:28:34.000Z,8.800000190734863
2024-01-26T01:28:54.000Z,8.800000190734863
2024-01-26T01:29:14.000Z,8.800000190734863
2024-01-26T01:29:34.000Z,8.899999618530273
2024-01-26T01:29:54.000Z,8.899999618530273
2024-01-26T01:30:14.000Z,8.899999618530273
2024-01-26T01:30:33.000Z,8.899999618530273
2024-01-26T01:30:53.000Z,8.899999618530273
2024-01-26T01:31:13.000Z,8.899999618530273
2024-01-26T01:31:33.000Z,8.899999618530273
2024-01-26T01:31:53.000Z,8.899999618530273
2024-01-26T01:32:13.000Z,8.899999618530273
2024-01-26T01:32:34.000Z,8.899999618530273
2024-01-26T01:32:54.000Z,8.899999618530273
2024-01-26T01:33:14.000Z,8.899999618530273
2024-01-26T01:33:34.000Z,8.899999618530273
2024-01-26T01:33:54.000Z,9.0
2024-01-26T01:34:14.000Z,8.899999618530273
2024-01-26T01:34:34.000Z,8.899999618530273
2024-01-26T01:34:54.000Z,9.0
2024-01-26T01:35:14.000Z,9.0
2024-01-26T01:35:34.000Z,9.0
2024-01-26T01:35:54.000Z,9.0
2024-01-26T01:36:14.000Z,9.0
2024-01-26T01:36:33.000Z,9.0
2024-01-26T01:36:53.000Z,9.0
2024-01-26T01:37:13.000Z,9.0
2024-01-26T01:37:33.000Z,9.0
2024-01-26T01:37:53.000Z,9.0
2024-01-26T01:38:14.000Z,9.0
2024-01-26T01:38:34.000Z,9.0
2024-01-26T01:38:54.000Z,9.0
2024-01-26T01:39:14.000Z,9.0
2024-01-26T01:39:34.000Z,9.0
2024-01-26T01:39:54.000Z,9.0
2024-01-26T01:40:14.000Z,9.0
2024-01-26T01:40:34.000Z,9.0
2024-01-26T01:40:54.000Z,9.0
2024-01-26T01:41:14.000Z,9.0
2024-01-26T01:41:34.000Z,9.0
2024-01-26T01:41:53.000Z,9.0
2024-01-26T01:42:13.000Z,9.0
2024-01-26T01:42:33.000Z,9.100000381469727
2024-01-26T01:42:53.000Z,9.100000381469727
2024-01-26T01:43:13.000Z,9.0
2024-01-26T01:43:33.000Z,9.100000381469727
2024-01-26T01:43:53.000Z,9.100000381469727
2024-01-26T01:44:14.000Z,9.100000381469727
2024-01-26T01:44:34.000Z,9.100000381469727
2024-01-26T01:44:54.000Z,9.100000381469727
2024-01-26T01:45:14.000Z,9.100000381469727
2024-01-26T01:45:34.000Z,9.100000381469727
2024-01-26T01:45:54.000Z,9.100000381469727
2024-01-26T01:46:14.000Z,9.100000381469727
2024-01-26T01:46:34.000Z,9.100000381469727
2024-01-26T01:46:54.000Z,9.100000381469727
2024-01-26T01:47:14.000Z,9.100000381469727
2024-01-26T01:47:33.000Z,9.100000381469727
2024-01-26T01:47:53.000Z,9.100000381469727
2024-01-26T01:48:14.000Z,9.100000381469727
2024-01-26T01:48:33.000Z,9.100000381469727
2024-01-26T01:48:53.000Z,9.100000381469727
2024-01-26T01:49:13.000Z,9.100000381469727
2024-01-26T01:49:33.000Z,9.199999809265137
2024-01-26T01:49:54.000Z,9.100000381469727
2024-01-26T01:50:14.000Z,9.100000381469727
2024-01-26T01:50:34.000Z,9.100000381469727
2024-01-26T01:50:54.000Z,9.199999809265137
2024-01-26T01:51:14.000Z,9.199999809265137
2024-01-26T01:51:34.000Z,9.199999809265137
2024-01-26T01:51:54.000Z,9.199999809265137
2024-01-26T01:52:14.000Z,9.199999809265137
2024-01-26T01:52:34.000Z,9.100000381469727
2024-01-26T01:52:54.000Z,9.199999809265137
2024-01-26T01:53:14.000Z,9.199999809265137
2024-01-26T01:53:33.000Z,9.199999809265137
2024-01-26T01:53:53.000Z,9.199999809265137
2024-01-26T01:54:13.000Z,9.199999809265137
2024-01-26T01:54:33.000Z,9.199999809265137
2024-01-26T01:54:53.000Z,9.199999809265137
2024-01-26T01:55:13.000Z,9.199999809265137
2024-01-26T01:55:33.000Z,9.199999809265137
2024-01-26T01:55:54.000Z,9.199999809265137
2024-01-26T01:56:14.000Z,9.199999809265137
2024-01-26T01:56:34.000Z,9.199999809265137
2024-01-26T01:56:54.000Z,9.199999809265137
2024-01-26T01:57:14.000Z,9.199999809265137
2024-01-26T01:57:34.000Z,9.199999809265137
2024-01-26T01:57:54.000Z,9.199999809265137
2024-01-26T01:58:14.000Z,9.199999809265137
2024-01-26T01:58:34.000Z,9.199999809265137
2024-01-26T01:58:54.000Z,9.199999809265137
2024-01-26T01:59:14.000Z,9.199999809265137
2024-01-26T01:59:33.000Z,9.199999809265137
2024-01-26T01:59:53.000Z,9.199999809265137
2024-01-26T02:00:13.000Z,9.199999809265137
2024-01-26T02:00:33.000Z,9.199999809265137
2024-01-26T02:00:53.000Z,9.199999809265137
2024-01-26T02:01:13.000Z,9.199999809265137
2024-01-26T02:01:34.000Z,9.199999809265137
2024-01-26T02:01:54.000Z,9.199999809265137
2024-01-26T02:02:14.000Z,9.199999809265137
2024-01-26T02:02:34.000Z,9.199999809265137
2024-01-26T02:02:54.000Z,9.199999809265137
2024-01-26T02:03:14.000Z,9.199999809265137
2024-01-26T02:03:34.000Z,9.199999809265137
2024-01-26T02:03:54.000Z,9.199999809265137
2024-01-26T02:04:14.000Z,9.199999809265137
2024-01-26T02:04:34.000Z,9.199999809265137
2024-01-26T02:04:54.000Z,9.199999809265137
2024-01-26T02:05:14.000Z,9.199999809265137
2024-01-26T02:05:33.000Z,9.300000190734863
2024-01-26T02:05:53.000Z,9.199999809265137
2024-01-26T02:06:14.000Z,9.199999809265137
2024-01-26T02:06:33.000Z,9.300000190734863
2024-01-26T02:06:53.000Z,9.300000190734863
2024-01-26T02:07:13.000Z,9.300000190734863
2024-01-26T02:07:33.000Z,9.199999809265137
2024-01-26T02:07:54.000Z,9.300000190734863
2024-01-26T02:08:14.000Z,9.199999809265137
2024-01-26T02:08:34.000Z,9.300000190734863
2024-01-26T02:08:54.000Z,9.300000190734863
2024-01-26T02:09:14.000Z,9.300000190734863
2024-01-26T02:09:34.000Z,9.300000190734863
2024-01-26T02:09:54.000Z,9.300000190734863
2024-01-26T02:10:14.000Z,9.300000190734863
2024-01-26T02:10:34.000Z,9.199999809265137
2024-01-26T02:10:54.000Z,9.300000190734863
2024-01-26T02:11:14.000Z,9.199999809265137
2024-01-26T02:11:33.000Z,9.199999809265137
2024-01-26T02:11:53.000Z,9.199999809265137
2024-01-26T02:12:13.000Z,9.199999809265137
2024-01-26T02:12:33.000Z,9.199999809265137
2024-01-26T02:12:53.000Z,9.199999809265137
2024-01-26T02:13:13.000Z,9.300000190734863
2024-01-26T02:13:33.000Z,9.199999809265137
2024-01-26T02:13:54.000Z,9.199999809265137
2024-01-26T02:14:14.000Z,9.199999809265137
2024-01-26T02:14:34.000Z,9.300000190734863
2024-01-26T02:14:54.000Z,9.300000190734863
2024-01-26T02:15:14.000Z,9.300000190734863
2024-01-26T02:15:34.000Z,9.300000190734863
2024-01-26T02:15:54.000Z,9.300000190734863
2024-01-26T02:16:14.000Z,9.300000190734863
2024-01-26T02:16:34.000Z,9.300000190734863
2024-01-26T02:16:54.000Z,9.300000190734863
2024-01-26T02:17:14.000Z,9.300000190734863
2024-01-26T02:17:33.000Z,9.300000190734863
2024-01-26T02:17:53.000Z,9.300000190734863
2024-01-26T02:18:14.000Z,9.300000190734863
2024-01-26T02:18:33.000Z,9.300000190734863
2024-01-26T02:18:53.000Z,9.300000190734863
2024-01-26T02:19:14.000Z,9.300000190734863
2024-01-26T02:19:34.000Z,9.300000190734863
2024-01-26T02:19:54.000Z,9.300000190734863
2024-01-26T02:20:14.000Z,9.300000190734863
2024-01-26T02:20:34.000Z,9.300000190734863
2024-01-26T02:20:54.000Z,9.300000190734863
2024-01-26T02:21:14.000Z,9.300000190734863
2024-01-26T02:21:34.000Z,9.300000190734863
2024-01-26T02:21:54.000Z,9.300000190734863
2024-01-26T02:22:14.000Z,9.300000190734863
2024-01-26T02:22:34.000Z,9.300000190734863
2024-01-26T02:22:54.000Z,9.300000190734863
2024-01-26T02:23:14.000Z,9.300000190734863
2024-01-26T02:23:33.000Z,9.300000190734863
2024-01-26T02:23:53.000Z,9.300000190734863
2024-01-26T02:24:13.000Z,9.300000190734863
2024-01-26T02:24:33.000Z,9.300000190734863
2024-01-26T02:24:53.000Z,9.300000190734863
2024-01-26T02:25:13.000Z,9.300000190734863
2024-01-26T02:25:34.000Z,9.300000190734863
2024-01-26T02:25:54.000Z,9.300000190734863
2024-01-26T02:26:14.000Z,9.300000190734863
2024-01-26T02:26:34.000Z,9.300000190734863
2024-01-26T02:26:54.000Z,9.399999618530273
2024-01-26T02:27:14.000Z,9.399999618530273
2024-01-26T02:27:34.000Z,9.399999618530273
2024-01-26T02:27:54.000Z,9.399999618530273
2024-01-26T02:28:14.000Z,9.399999618530273
2024-01-26T02:28:34.000Z,9.399999618530273
2024-01-26T02:28:53.000Z,9.399999618530273
2024-01-26T02:29:13.000Z,9.399999618530273
2024-01-26T02:29:33.000Z,9.399999618530273
2024-01-26T02:29:53.000Z,9.5
2024-01-26T02:30:13.000Z,9.399999618530273
2024-01-26T02:30:33.000Z,9.5
2024-01-26T02:30:54.000Z,9.5
2024-01-26T02:31:14.000Z,9.5
2024-01-26T02:31:34.000Z,9.5
2024-01-26T02:31:54.000Z,9.5
2024-01-26T02:32:14.000Z,9.399999618530273
2024-01-26T02:32:34.000Z,9.399999618530273
2024-01-26T02:32:54.000Z,9.399999618530273
2024-01-26T02:33:14.000Z,9.399999618530273
2024-01-26T02:33:34.000Z,9.399999618530273
2024-01-26T02:33:54.000Z,9.399999618530273
2024-01-26T02:34:14.000Z,9.399999618530273
2024-01-26T02:34:33.000Z,9.399999618530273
2024-01-26T02:34:53.000Z,9.399999618530273
2024-01-26T02:35:13.000Z,9.399999618530273
2024-01-26T02:35:33.000Z,9.399999618530273
2024-01-26T02:35:53.000Z,9.399999618530273
2024-01-26T02:36:13.000Z,9.399999618530273
2024-01-26T02:36:33.000Z,9.399999618530273
2024-01-26T02:36:54.000Z,9.399999618530273
2024-01-26T02:37:14.000Z,9.300000190734863
2024-01-26T02:37:34.000Z,9.399999618530273
2024-01-26T02:37:54.000Z,9.399999618530273
2024-01-26T02:38:14.000Z,9.300000190734863
2024-01-26T02:38:34.000Z,9.399999618530273
2024-01-26T02:38:54.000Z,9.399999618530273
2024-01-26T02:39:14.000Z,9.300000190734863
2024-01-26T02:39:34.000Z,9.399999618530273
2024-01-26T02:39:54.000Z,9.300000190734863
2024-01-26T02:40:14.000Z,9.300000190734863
2024-01-26T02:40:33.000Z,9.300000190734863
2024-01-26T02:40:53.000Z,9.300000190734863
2024-01-26T02:41:13.000Z,9.300000190734863
2024-01-26T02:41:33.000Z,9.300000190734863
2024-01-26T02:41:53.000Z,9.300000190734863
2024-01-26T02:42:13.000Z,9.300000190734863
2024-01-26T02:42:34.000Z,9.300000190734863
2024-01-26T02:42:54.000Z,9.300000190734863
2024-01-26T02:43:14.000Z,9.300000190734863
2024-01-26T02:43:34.000Z,9.300000190734863
2024-01-26T02:43:54.000Z,9.300000190734863
2024-01-26T02:44:14.000Z,9.300000190734863
2024-01-26T02:44:34.000Z,9.300000190734863
2024-01-26T02:44:54.000Z,9.300000190734863
2024-01-26T02:45:14.000Z,9.300000190734863
2024-01-26T02:45:34.000Z,9.300000190734863
2024-01-26T02:45:54.000Z,9.300000190734863
2024-01-26T02:46:14.000Z,9.300000190734863
2024-01-26T02:46:33.000Z,9.300000190734863
2024-01-26T02:46:53.000Z,9.300000190734863
2024-01-26T02:47:13.000Z,9.300000190734863
2024-01-26T02:47:33.000Z,9.300000190734863
2024-01-26T02:47:53.000Z,9.300000190734863
2024-01-26T02:48:13.000Z,9.300000190734863
2024-01-26T02:48:34.000Z,9.300000190734863
2024-01-26T02:48:54.000Z,9.300000190734863
2024-01-26T02:49:14.000Z,9.300000190734863
2024-01-26T02:49:34.000Z,9.300000190734863
2024-01-26T02:49:54.000Z,9.399999618530273
2024-01-26T02:50:14.000Z,9.300000190734863
2024-01-26T02:50:34.000Z,9.399999618530273
2024-01-26T02:50:54.000Z,9.399999618530273
2024-01-26T02:51:14.000Z,9.399999618530273
2024-01-26T02:51:34.000Z,9.399999618530273
2024-01-26T02:51:54.000Z,9.399999618530273
2024-01-26T02:52:14.000Z,9.399999618530273
2024-01-26T02:52:33.000Z,9.399999618530273
2024-01-26T02:52:53.000Z,9.399999618530273
2024-01-26T02:53:13.000Z,9.399999618530273
2024-01-26T02:53:33.000Z,9.399999618530273
2024-01-26T02:53:53.000Z,9.399999618530273
2024-01-26T02:54:14.000Z,9.399999618530273
2024-01-26T02:54:34.000Z,9.399999618530273
2024-01-26T02:54:54.000Z,9.399999618530273
2024-01-26T02:55:14.000Z,9.5
2024-01-26T02:55:34.000Z,9.399999618530273
2024-01-26T02:55:54.000Z,9.5
2024-01-26T02:56:14.000Z,9.5
2024-01-26T02:56:34.000Z,9.5
2024-01-26T02:56:54.000Z,9.5
2024-01-26T02:57:14.000Z,9.5
2024-01-26T02:57:34.000Z,9.5
2024-01-26T02:57:54.000Z,9.5
2024-01-26T02:58:14.000Z,9.5
2024-01-26T02:58:33.000Z,9.600000381469727
2024-01-26T02:58:53.000Z,9.5
2024-01-26T02:59:13.000Z,9.5
2024-01-26T02:59:33.000Z,9.5
2024-01-26T02:59:53.000Z,9.5
2024-01-26T03:00:13.000Z,9.5
2024-01-26T03:00:33.000Z,9.5
2024-01-26T03:00:54.000Z,9.5
2024-01-26T03:01:14.000Z,9.5
2024-01-26T03:01:34.000Z,9.5
2024-01-26T03:01:54.000Z,9.5
2024-01-26T03:02:14.000Z,9.5
2024-01-26T03:02:34.000Z,9.5
2024-01-26T03:02:54.000Z,9.5
2024-01-26T03:03:14.000Z,9.5
2024-01-26T03:03:34.000Z,9.5
2024-01-26T03:03:54.000Z,9.5
2024-01-26T03:04:14.000Z,9.5
2024-01-26T03:04:33.000Z,9.5
2024-01-26T03:04:53.000Z,9.5
2024-01-26T03:05:13.000Z,9.5
2024-01-26T03:05:33.000Z,9.5
2024-01-26T03:05:53.000Z,9.5
2024-01-26T03:06:14.000Z,9.5
2024-01-26T03:06:33.000Z,9.600000381469727
2024-01-26T03:06:53.000Z,9.5
2024-01-26T03:07:13.000Z,9.5
2024-01-26T03:07:33.000Z,9.5
2024-01-26T03:07:54.000Z,9.5
2024-01-26T03:08:14.000Z,9.600000381469727
2024-01-26T03:08:34.000Z,9.5
2024-01-26T03:08:54.000Z,9.5
2024-01-26T03:09:14.000Z,9.5
2024-01-26T03:09:34.000Z,9.5
2024-01-26T03:09:54.000Z,9.5
2024-01-26T03:10:34.000Z,9.5
2024-01-26T03:10:54.000Z,9.5
2024-01-26T03:11:14.000Z,9.5
2024-01-26T03:11:34.000Z,9.5
2024-01-26T03:11:54.000Z,9.600000381469727
2024-01-26T03:12:14.000Z,9.5
2024-01-26T03:12:34.000Z,9.600000381469727
2024-01-26T03:12:53.000Z,9.600000381469727
2024-01-26T03:13:33.000Z,9.600000381469727
2024-01-26T03:13:53.000Z,9.600000381469727
2024-01-26T03:14:13.000Z,9.600000381469727
2024-01-26T03:14:33.000Z,9.600000381469727
2024-01-26T03:14:53.000Z,9.600000381469727
2024-01-26T03:15:14.000Z,9.600000381469727
2024-01-26T03:15:33.000Z,9.600000381469727
2024-01-26T03:15:54.000Z,9.600000381469727
2024-01-26T03:16:34.000Z,9.5
2024-01-26T03:16:54.000Z,9.5
2024-01-26T03:17:14.000Z,9.5
2024-01-26T03:17:34.000Z,9.600000381469727
2024-01-26T03:17:54.000Z,9.5
2024-01-26T03:18:14.000Z,9.600000381469727
2024-01-26T03:18:34.000Z,9.600000381469727
2024-01-26T03:18:54.000Z,9.600000381469727
2024-01-26T03:19:14.000Z,9.600000381469727
2024-01-26T03:19:34.000Z,9.600000381469727
2024-01-26T03:19:54.000Z,9.699999809265137
2024-01-26T03:20:33.000Z,9.699999809265137
2024-01-26T03:20:53.000Z,9.699999809265137
2024-01-26T03:21:14.000Z,9.699999809265137
2024-01-26T03:21:33.000Z,9.699999809265137
2024-01-26T03:21:53.000Z,9.699999809265137
2024-01-26T03:22:13.000Z,9.699999809265137
2024-01-26T03:22:33.000Z,9.699999809265137
2024-01-26T03:22:54.000Z,9.699999809265137
2024-01-26T03:23:14.000Z,9.699999809265137
2024-01-26T03:23:34.000Z,9.699999809265137
2024-01-26T03:23:54.000Z,9.699999809265137
2024-01-26T03:24:14.000Z,9.699999809265137
2024-01-26T03:24:34.000Z,9.699999809265137
2024-01-26T03:24:54.000Z,9.699999809265137
2024-01-26T03:25:34.000Z,9.800000190734863
2024-01-26T03:25:54.000Z,9.800000190734863
2024-01-26T03:26:14.000Z,9.800000190734863
2024-01-26T03:26:34.000Z,9.800000190734863
2024-01-26T03:26:53.000Z,9.800000190734863
2024-01-26T03:27:14.000Z,9.800000190734863
2024-01-26T03:27:33.000Z,9.800000190734863
2024-01-26T03:27:53.000Z,9.800000190734863
2024-01-26T03:28:13.000Z,9.800000190734863
2024-01-26T03:28:33.000Z,9.800000190734863
2024-01-26T03:28:53.000Z,9.800000190734863
2024-01-26T03:29:13.000Z,9.800000190734863
2024-01-26T03:29:34.000Z,9.800000190734863
2024-01-26T03:29:54.000Z,9.800000190734863
2024-01-26T03:30:14.000Z,9.800000190734863
2024-01-26T03:30:34.000Z,9.800000190734863